Pagina principale
METAR-TAF:

METAR-TAF

Aeroporti :

Wiener Neustadt, Austria

latitudine: 47-50-36N, longitudine: 016-15-29E, altezza: 272 m

Osservazione

Il bollettino è stato emesso 58 minuti fa, alle 16:00 UTC
Vento 16 kt da ovest con raffiche fino a 35 kt
Temperature
Pressione

METAR: LOAN 231600Z 28016G35KT 10KM FEW060SC SCT090AC

Ora: 18:58 (16:58 UTC)

Previsione

Il bollettino è stato emesso 55 minuti fa, alle 16:03 UTC
Previsione valida dal 23 alle 16 UTC al 23 alle 21 UTC
Vento 13 kt da ovest/nord-ovest
Visibilità 10 km o più
Poco nuvoloso ad un'altezza di 4000 ft
Nuvoloso ad un'altezza di 14000 ft
Temporaneamente
dal 23 alle 16 UTC al 23 alle 21 UTC
Vento 17 kt da ovest/nord-ovest con raffiche fino a 35 kt

TAF: LOAN 231603Z 2316/2321 29013KT 9999 FEW040 BKN140 TEMPO 2316/2321 30017G35KT

Osservazioni e previsioni meteorologiche di più di 4000 aeroporti (messaggi METAR e TAF).

Le stazioni disponibili sono rappresentate dai dischi gialli e rossi sulla carta.

Puntare il mouse per vedere il nome della stazione.

Clicca sopra per visualizzare le osservazioni e previsioni meteorologiche.

Per cambiare la mappa : fare clic sui pulsanti verdi con una croce nera per ingrandire, il pulsante verde con un trattino per diminuire, o sulla freccia verde per le mappe adiacenti.


METAR-TAF: